Decoded Metar for LFMK (Carcassonne in FRANCE) (IATA:CCF) | Meteo·Mobile Aviation Weather
aviador You're here:

LFMK Decoded Metar

Carcassonne in FRANCE
Report Time2019-02-22 00:00:00
UTC Time2019-02-22 00:25:13
Flight Rules vfr VFR
Wind170° at 05 kt
W.Decomp.*RWY 10: 1.7 kt HW 4.7 kt RCW
W.Rank170° ranks 18
Current wind is above 170° avg. (2.9)
Visibility9999 m
Phenomena:N/A
Clouds:N/A
Expected CloudBase > 400 ft AGL from Temp-Dew spread
CeilingNone
Temp04°C (ISA -10)
Dew Point03°C (93% RH)
AAT0.7°C
QNH1031 hPa
Density Alt-1,306 ft
Elevation427 ft
Report Wrong Elevation
Raw Report
LFMK 220000Z AUTO 17005KT CAVOK 04/03 Q1031=

Extra information for LFMK:More info

Metar Taf Metar & Taf Last 4 Metars F.Rules Stats Wind Profile Meteogram Temp Stats Airport Information Weather charts Add Link Nearby VenuesMetar ALERT Operation Metar Decoded Social comments

AudeAéroServices
Aéroprakt A-22
Husky Dealer